sensor_id;sensor_type;location;lat;lon;timestamp;temperature;humidity
14016;DHT22;7083;48.854;9.158;2023-02-28T00:01:11;-2.90;92.60
14016;DHT22;7083;48.854;9.158;2023-02-28T00:03:41;-2.90;92.60
14016;DHT22;7083;48.854;9.158;2023-02-28T00:06:09;-1.50;93.60
14016;DHT22;7083;48.854;9.158;2023-02-28T00:08:36;-2.80;92.70
14016;DHT22;7083;48.854;9.158;2023-02-28T00:11:27;-2.90;93.10
14016;DHT22;7083;48.854;9.158;2023-02-28T00:13:54;-2.90;93.00
14016;DHT22;7083;48.854;9.158;2023-02-28T00:16:22;-2.80;93.10
14016;DHT22;7083;48.854;9.158;2023-02-28T00:18:49;-2.80;93.30
14016;DHT22;7083;48.854;9.158;2023-02-28T00:21:18;-2.80;93.30
14016;DHT22;7083;48.854;9.158;2023-02-28T00:23:46;-4.90;92.80
14016;DHT22;7083;48.854;9.158;2023-02-28T00:26:15;-3.10;93.50
14016;DHT22;7083;48.854;9.158;2023-02-28T00:28:44;-2.80;93.60
14016;DHT22;7083;48.854;9.158;2023-02-28T00:31:10;-2.80;93.80
14016;DHT22;7083;48.854;9.158;2023-02-28T00:33:38;-2.80;94.00
14016;DHT22;7083;48.854;9.158;2023-02-28T00:36:07;-2.80;94.40
14016;DHT22;7083;48.854;9.158;2023-02-28T00:38:34;-0.30;95.70
14016;DHT22;7083;48.854;9.158;2023-02-28T00:41:01;-2.80;94.40
14016;DHT22;7083;48.854;9.158;2023-02-28T00:43:35;-2.80;95.10
14016;DHT22;7083;48.854;9.158;2023-02-28T00:46:04;-2.70;95.20
14016;DHT22;7083;48.854;9.158;2023-02-28T00:48:30;-2.70;95.20
14016;DHT22;7083;48.854;9.158;2023-02-28T00:50:57;-2.70;95.20
14016;DHT22;7083;48.854;9.158;2023-02-28T00:53:24;-2.70;95.30
14016;DHT22;7083;48.854;9.158;2023-02-28T00:55:51;-2.70;95.30
14016;DHT22;7083;48.854;9.158;2023-02-28T00:58:20;-2.80;95.40
14016;DHT22;7083;48.854;9.158;2023-02-28T01:00:47;-2.90;96.00
14016;DHT22;7083;48.854;9.158;2023-02-28T01:03:16;-3.00;95.90
14016;DHT22;7083;48.854;9.158;2023-02-28T01:05:43;-3.00;96.50
14016;DHT22;7083;48.854;9.158;2023-02-28T01:08:10;-3.00;97.30
14016;DHT22;7083;48.854;9.158;2023-02-28T01:10:36;-2.90;98.20
14016;DHT22;7083;48.854;9.158;2023-02-28T01:13:03;-2.80;98.50
14016;DHT22;7083;48.854;9.158;2023-02-28T01:15:30;-2.90;98.60
14016;DHT22;7083;48.854;9.158;2023-02-28T01:18:04;-2.80;99.20
14016;DHT22;7083;48.854;9.158;2023-02-28T01:20:37;-2.80;99.90
14016;DHT22;7083;48.854;9.158;2023-02-28T01:23:04;-2.80;99.70
14016;DHT22;7083;48.854;9.158;2023-02-28T01:25:31;-2.90;99.60
14016;DHT22;7083;48.854;9.158;2023-02-28T01:28:00;-2.90;99.90
14016;DHT22;7083;48.854;9.158;2023-02-28T01:30:27;-2.80;99.90
14016;DHT22;7083;48.854;9.158;2023-02-28T01:32:53;-2.70;99.90
14016;DHT22;7083;48.854;9.158;2023-02-28T01:35:20;-2.80;99.90
14016;DHT22;7083;48.854;9.158;2023-02-28T01:37:48;-2.80;99.90
14016;DHT22;7083;48.854;9.158;2023-02-28T01:40:15;-2.80;99.90
14016;DHT22;7083;48.854;9.158;2023-02-28T01:42:41;-2.90;99.90
14016;DHT22;7083;48.854;9.158;2023-02-28T01:45:20;-2.90;99.90
14016;DHT22;7083;48.854;9.158;2023-02-28T01:47:48;-2.80;99.90
14016;DHT22;7083;48.854;9.158;2023-02-28T01:50:19;-2.90;99.90
14016;DHT22;7083;48.854;9.158;2023-02-28T01:52:48;-2.90;99.90
14016;DHT22;7083;48.854;9.158;2023-02-28T01:55:17;-2.90;99.90
14016;DHT22;7083;48.854;9.158;2023-02-28T01:57:48;-2.90;99.90
14016;DHT22;7083;48.854;9.158;2023-02-28T02:00:17;-3.00;99.90
14016;DHT22;7083;48.854;9.158;2023-02-28T02:02:47;-3.00;99.90
14016;DHT22;7083;48.854;9.158;2023-02-28T02:05:17;-3.00;99.90
14016;DHT22;7083;48.854;9.158;2023-02-28T02:07:47;-2.90;99.90
14016;DHT22;7083;48.854;9.158;2023-02-28T02:10:18;-3.00;99.90
14016;DHT22;7083;48.854;9.158;2023-02-28T02:12:58;-3.00;99.90
14016;DHT22;7083;48.854;9.158;2023-02-28T02:15:31;-3.10;99.90
14016;DHT22;7083;48.854;9.158;2023-02-28T02:18:02;-3.30;99.90
14016;DHT22;7083;48.854;9.158;2023-02-28T02:21:00;-3.10;99.90
14016;DHT22;7083;48.854;9.158;2023-02-28T02:29:46;-3.10;99.90
14016;DHT22;7083;48.854;9.158;2023-02-28T02:32:34;-3.10;99.90
14016;DHT22;7083;48.854;9.158;2023-02-28T02:35:14;-4.40;99.90
14016;DHT22;7083;48.854;9.158;2023-02-28T02:37:48;-3.20;99.90
14016;DHT22;7083;48.854;9.158;2023-02-28T02:40:20;-3.20;99.90
14016;DHT22;7083;48.854;9.158;2023-02-28T02:42:51;-3.10;99.90
14016;DHT22;7083;48.854;9.158;2023-02-28T02:45:25;-3.10;99.90
14016;DHT22;7083;48.854;9.158;2023-02-28T02:47:53;-3.00;99.90
14016;DHT22;7083;48.854;9.158;2023-02-28T02:50:29;-3.00;99.90
14016;DHT22;7083;48.854;9.158;2023-02-28T02:53:00;-2.90;99.90
14016;DHT22;7083;48.854;9.158;2023-02-28T02:55:29;-2.80;99.90
14016;DHT22;7083;48.854;9.158;2023-02-28T02:58:00;-2.70;99.90
14016;DHT22;7083;48.854;9.158;2023-02-28T03:00:32;-2.60;99.90
14016;DHT22;7083;48.854;9.158;2023-02-28T03:03:01;-2.60;99.90
14016;DHT22;7083;48.854;9.158;2023-02-28T03:05:33;-2.60;99.90
14016;DHT22;7083;48.854;9.158;2023-02-28T03:08:03;-2.40;99.90
14016;DHT22;7083;48.854;9.158;2023-02-28T03:10:35;-2.40;99.90
14016;DHT22;7083;48.854;9.158;2023-02-28T03:16:37;-2.30;99.90
14016;DHT22;7083;48.854;9.158;2023-02-28T03:19:23;-2.30;99.90
14016;DHT22;7083;48.854;9.158;2023-02-28T03:22:00;-2.30;99.90
14016;DHT22;7083;48.854;9.158;2023-02-28T03:24:33;-2.30;99.90
14016;DHT22;7083;48.854;9.158;2023-02-28T03:27:08;-2.20;99.90
14016;DHT22;7083;48.854;9.158;2023-02-28T03:29:39;-2.10;99.90
14016;DHT22;7083;48.854;9.158;2023-02-28T03:32:13;-2.10;99.90
14016;DHT22;7083;48.854;9.158;2023-02-28T03:34:49;-2.00;99.90
14016;DHT22;7083;48.854;9.158;2023-02-28T03:37:23;-2.00;99.90
14016;DHT22;7083;48.854;9.158;2023-02-28T03:39:54;-2.00;99.90
14016;DHT22;7083;48.854;9.158;2023-02-28T03:42:24;-1.90;99.90
14016;DHT22;7083;48.854;9.158;2023-02-28T03:44:54;-2.00;99.90
14016;DHT22;7083;48.854;9.158;2023-02-28T03:47:27;-1.90;99.90
14016;DHT22;7083;48.854;9.158;2023-02-28T03:49:57;-1.90;99.90
14016;DHT22;7083;48.854;9.158;2023-02-28T03:52:28;-1.90;99.90
14016;DHT22;7083;48.854;9.158;2023-02-28T03:55:02;-1.90;99.90
14016;DHT22;7083;48.854;9.158;2023-02-28T03:57:34;-1.90;99.90
14016;DHT22;7083;48.854;9.158;2023-02-28T04:00:07;-1.90;99.90
14016;DHT22;7083;48.854;9.158;2023-02-28T04:02:35;-1.80;99.90
14016;DHT22;7083;48.854;9.158;2023-02-28T04:05:02;-1.80;99.90
14016;DHT22;7083;48.854;9.158;2023-02-28T04:07:30;-1.80;99.90
14016;DHT22;7083;48.854;9.158;2023-02-28T04:09:58;-1.80;99.90
14016;DHT22;7083;48.854;9.158;2023-02-28T04:12:25;-1.70;99.90
14016;DHT22;7083;48.854;9.158;2023-02-28T04:14:51;-1.70;99.90
14016;DHT22;7083;48.854;9.158;2023-02-28T04:17:18;-1.70;99.90
14016;DHT22;7083;48.854;9.158;2023-02-28T04:19:45;-1.70;99.90
14016;DHT22;7083;48.854;9.158;2023-02-28T04:22:11;-1.70;99.90
14016;DHT22;7083;48.854;9.158;2023-02-28T04:24:40;-1.60;99.90
14016;DHT22;7083;48.854;9.158;2023-02-28T04:27:08;-1.60;99.90
14016;DHT22;7083;48.854;9.158;2023-02-28T04:29:35;-1.50;99.90
14016;DHT22;7083;48.854;9.158;2023-02-28T04:32:03;-1.50;99.90
14016;DHT22;7083;48.854;9.158;2023-02-28T04:34:31;-1.50;99.90
14016;DHT22;7083;48.854;9.158;2023-02-28T04:36:58;-1.50;99.90
14016;DHT22;7083;48.854;9.158;2023-02-28T04:39:25;-1.50;99.90
14016;DHT22;7083;48.854;9.158;2023-02-28T04:41:53;-1.50;99.90
14016;DHT22;7083;48.854;9.158;2023-02-28T04:44:20;-1.50;99.90
14016;DHT22;7083;48.854;9.158;2023-02-28T04:46:48;-1.40;99.90
14016;DHT22;7083;48.854;9.158;2023-02-28T04:49:15;-1.40;99.90
14016;DHT22;7083;48.854;9.158;2023-02-28T04:51:42;-1.40;99.90
14016;DHT22;7083;48.854;9.158;2023-02-28T04:54:09;-1.40;99.90
14016;DHT22;7083;48.854;9.158;2023-02-28T04:56:36;-1.40;99.90
14016;DHT22;7083;48.854;9.158;2023-02-28T04:59:04;-1.40;99.90
14016;DHT22;7083;48.854;9.158;2023-02-28T05:01:32;-1.40;99.90
14016;DHT22;7083;48.854;9.158;2023-02-28T05:04:02;-1.40;99.90
14016;DHT22;7083;48.854;9.158;2023-02-28T05:06:32;-1.40;99.90
14016;DHT22;7083;48.854;9.158;2023-02-28T05:08:59;-1.40;99.90
14016;DHT22;7083;48.854;9.158;2023-02-28T05:11:28;-1.40;99.90
14016;DHT22;7083;48.854;9.158;2023-02-28T05:13:59;-1.40;99.90
14016;DHT22;7083;48.854;9.158;2023-02-28T05:16:27;-1.40;99.90
14016;DHT22;7083;48.854;9.158;2023-02-28T05:18:53;-1.30;99.90
14016;DHT22;7083;48.854;9.158;2023-02-28T05:21:26;-1.30;99.90
14016;DHT22;7083;48.854;9.158;2023-02-28T05:23:54;-1.30;99.90
14016;DHT22;7083;48.854;9.158;2023-02-28T05:26:22;-1.30;99.90
14016;DHT22;7083;48.854;9.158;2023-02-28T05:28:48;-1.30;99.90
14016;DHT22;7083;48.854;9.158;2023-02-28T05:31:15;-1.30;99.90
14016;DHT22;7083;48.854;9.158;2023-02-28T05:33:43;-0.30;99.90
14016;DHT22;7083;48.854;9.158;2023-02-28T05:36:10;-1.30;99.90
14016;DHT22;7083;48.854;9.158;2023-02-28T05:38:37;-1.30;99.90
14016;DHT22;7083;48.854;9.158;2023-02-28T05:41:07;-1.30;99.90
14016;DHT22;7083;48.854;9.158;2023-02-28T05:43:34;-1.30;99.90
14016;DHT22;7083;48.854;9.158;2023-02-28T05:46:03;-1.20;99.90
14016;DHT22;7083;48.854;9.158;2023-02-28T05:48:30;-1.20;99.90
14016;DHT22;7083;48.854;9.158;2023-02-28T05:50:58;-1.30;99.90
14016;DHT22;7083;48.854;9.158;2023-02-28T05:53:26;-1.20;99.90
14016;DHT22;7083;48.854;9.158;2023-02-28T05:55:53;-1.20;99.90
14016;DHT22;7083;48.854;9.158;2023-02-28T05:58:19;-1.20;99.90
14016;DHT22;7083;48.854;9.158;2023-02-28T06:00:46;-1.20;99.90
14016;DHT22;7083;48.854;9.158;2023-02-28T06:03:13;-1.20;99.90
14016;DHT22;7083;48.854;9.158;2023-02-28T06:05:41;-1.20;99.90
14016;DHT22;7083;48.854;9.158;2023-02-28T06:08:09;-1.20;99.90
14016;DHT22;7083;48.854;9.158;2023-02-28T06:10:36;-1.10;99.90
14016;DHT22;7083;48.854;9.158;2023-02-28T06:13:03;-1.10;99.90
14016;DHT22;7083;48.854;9.158;2023-02-28T06:15:30;-1.20;99.90
14016;DHT22;7083;48.854;9.158;2023-02-28T06:17:58;-1.20;99.90
14016;DHT22;7083;48.854;9.158;2023-02-28T06:20:26;-1.20;99.90
14016;DHT22;7083;48.854;9.158;2023-02-28T06:22:54;-1.20;99.90
14016;DHT22;7083;48.854;9.158;2023-02-28T06:25:22;-1.20;99.90
14016;DHT22;7083;48.854;9.158;2023-02-28T06:27:49;-1.10;99.90
14016;DHT22;7083;48.854;9.158;2023-02-28T06:30:16;-1.10;99.90
14016;DHT22;7083;48.854;9.158;2023-02-28T06:32:43;-1.10;99.90
14016;DHT22;7083;48.854;9.158;2023-02-28T06:35:10;-1.10;99.90
14016;DHT22;7083;48.854;9.158;2023-02-28T06:37:36;-1.10;99.90
14016;DHT22;7083;48.854;9.158;2023-02-28T06:40:04;-1.10;99.90
14016;DHT22;7083;48.854;9.158;2023-02-28T06:42:34;-1.00;99.90
14016;DHT22;7083;48.854;9.158;2023-02-28T06:45:01;-0.90;99.90
14016;DHT22;7083;48.854;9.158;2023-02-28T06:47:30;-0.90;99.90
14016;DHT22;7083;48.854;9.158;2023-02-28T06:49:57;-0.90;99.90
14016;DHT22;7083;48.854;9.158;2023-02-28T06:52:23;-0.80;99.90
14016;DHT22;7083;48.854;9.158;2023-02-28T06:54:50;-0.80;99.90
14016;DHT22;7083;48.854;9.158;2023-02-28T06:57:25;-0.80;99.90
14016;DHT22;7083;48.854;9.158;2023-02-28T06:59:53;-0.70;99.70
14016;DHT22;7083;48.854;9.158;2023-02-28T07:02:19;-0.80;99.80
14016;DHT22;7083;48.854;9.158;2023-02-28T07:04:46;-0.70;99.90
14016;DHT22;7083;48.854;9.158;2023-02-28T07:07:13;-0.70;99.60
14016;DHT22;7083;48.854;9.158;2023-02-28T07:09:39;-0.70;99.30
14016;DHT22;7083;48.854;9.158;2023-02-28T07:12:06;-0.60;98.90
14016;DHT22;7083;48.854;9.158;2023-02-28T07:14:33;1.50;99.60
14016;DHT22;7083;48.854;9.158;2023-02-28T07:17:01;-0.60;98.80
14016;DHT22;7083;48.854;9.158;2023-02-28T07:19:28;-0.60;98.90
14016;DHT22;7083;48.854;9.158;2023-02-28T07:21:55;-0.60;98.90
14016;DHT22;7083;48.854;9.158;2023-02-28T07:24:21;-0.60;98.70
14016;DHT22;7083;48.854;9.158;2023-02-28T07:26:51;-0.60;98.50
14016;DHT22;7083;48.854;9.158;2023-02-28T07:29:17;-0.60;98.40
14016;DHT22;7083;48.854;9.158;2023-02-28T07:31:44;-0.60;98.10
14016;DHT22;7083;48.854;9.158;2023-02-28T07:34:13;-0.50;98.20
14016;DHT22;7083;48.854;9.158;2023-02-28T07:36:40;-0.50;98.60
14016;DHT22;7083;48.854;9.158;2023-02-28T07:39:06;-0.50;97.70
14016;DHT22;7083;48.854;9.158;2023-02-28T07:41:34;-0.50;97.70
14016;DHT22;7083;48.854;9.158;2023-02-28T07:44:05;-0.50;97.80
14016;DHT22;7083;48.854;9.158;2023-02-28T07:46:31;-0.50;98.20
14016;DHT22;7083;48.854;9.158;2023-02-28T07:49:00;-0.40;98.20
14016;DHT22;7083;48.854;9.158;2023-02-28T07:51:29;-0.40;97.80
14016;DHT22;7083;48.854;9.158;2023-02-28T07:53:56;-0.40;97.30
14016;DHT22;7083;48.854;9.158;2023-02-28T07:56:23;-0.40;97.40
14016;DHT22;7083;48.854;9.158;2023-02-28T07:58:50;-0.40;97.50
14016;DHT22;7083;48.854;9.158;2023-02-28T08:01:17;-0.40;97.20
14016;DHT22;7083;48.854;9.158;2023-02-28T08:03:44;-0.30;97.10
14016;DHT22;7083;48.854;9.158;2023-02-28T08:06:16;-0.40;96.80
14016;DHT22;7083;48.854;9.158;2023-02-28T08:08:45;-0.30;97.20
14016;DHT22;7083;48.854;9.158;2023-02-28T08:11:11;-0.20;97.20
14016;DHT22;7083;48.854;9.158;2023-02-28T08:13:38;-0.20;97.10
14016;DHT22;7083;48.854;9.158;2023-02-28T08:16:05;-0.10;96.90
14016;DHT22;7083;48.854;9.158;2023-02-28T08:18:33;-0.10;96.50
14016;DHT22;7083;48.854;9.158;2023-02-28T08:21:04;-0.10;96.40
14016;DHT22;7083;48.854;9.158;2023-02-28T08:23:31;-0.10;96.60
14016;DHT22;7083;48.854;9.158;2023-02-28T08:26:00;-0.10;96.30
14016;DHT22;7083;48.854;9.158;2023-02-28T08:28:27;0.00;96.50
14016;DHT22;7083;48.854;9.158;2023-02-28T08:30:53;0.00;96.00
14016;DHT22;7083;48.854;9.158;2023-02-28T08:33:21;0.10;96.00
14016;DHT22;7083;48.854;9.158;2023-02-28T08:35:48;0.10;96.10
14016;DHT22;7083;48.854;9.158;2023-02-28T08:38:14;0.10;95.90
14016;DHT22;7083;48.854;9.158;2023-02-28T08:40:41;0.20;96.00
14016;DHT22;7083;48.854;9.158;2023-02-28T08:43:09;0.30;95.80
14016;DHT22;7083;48.854;9.158;2023-02-28T08:45:36;0.30;95.40
14016;DHT22;7083;48.854;9.158;2023-02-28T08:48:03;0.50;95.10
14016;DHT22;7083;48.854;9.158;2023-02-28T08:50:30;0.40;94.90
14016;DHT22;7083;48.854;9.158;2023-02-28T08:52:57;0.40;94.80
14016;DHT22;7083;48.854;9.158;2023-02-28T08:55:23;0.50;94.80
14016;DHT22;7083;48.854;9.158;2023-02-28T08:57:50;0.60;95.00
14016;DHT22;7083;48.854;9.158;2023-02-28T09:00:20;0.70;95.50
14016;DHT22;7083;48.854;9.158;2023-02-28T09:02:47;0.80;94.30
14016;DHT22;7083;48.854;9.158;2023-02-28T09:05:14;0.90;94.50
14016;DHT22;7083;48.854;9.158;2023-02-28T09:07:40;0.90;94.30
14016;DHT22;7083;48.854;9.158;2023-02-28T09:10:08;1.00;93.90
14016;DHT22;7083;48.854;9.158;2023-02-28T09:12:35;1.10;94.20
14016;DHT22;7083;48.854;9.158;2023-02-28T09:15:03;1.10;93.70
14016;DHT22;7083;48.854;9.158;2023-02-28T09:17:31;1.20;93.40
14016;DHT22;7083;48.854;9.158;2023-02-28T09:19:58;0.90;93.20
14016;DHT22;7083;48.854;9.158;2023-02-28T09:22:25;1.20;93.90
14016;DHT22;7083;48.854;9.158;2023-02-28T09:24:51;1.30;93.10
14016;DHT22;7083;48.854;9.158;2023-02-28T09:27:18;1.40;93.20
14016;DHT22;7083;48.854;9.158;2023-02-28T09:29:45;1.50;93.20
14016;DHT22;7083;48.854;9.158;2023-02-28T09:32:11;1.50;92.20
14016;DHT22;7083;48.854;9.158;2023-02-28T09:34:39;1.60;92.50
14016;DHT22;7083;48.854;9.158;2023-02-28T09:37:06;1.70;91.90
14016;DHT22;7083;48.854;9.158;2023-02-28T09:39:33;1.70;91.90
14016;DHT22;7083;48.854;9.158;2023-02-28T09:42:01;1.70;92.00
14016;DHT22;7083;48.854;9.158;2023-02-28T09:44:31;1.70;91.80
14016;DHT22;7083;48.854;9.158;2023-02-28T09:47:01;2.00;91.40
14016;DHT22;7083;48.854;9.158;2023-02-28T09:49:37;2.10;91.00
14016;DHT22;7083;48.854;9.158;2023-02-28T09:52:10;2.30;90.90
14016;DHT22;7083;48.854;9.158;2023-02-28T09:54:37;2.50;90.30
14016;DHT22;7083;48.854;9.158;2023-02-28T09:57:07;2.50;90.20
14016;DHT22;7083;48.854;9.158;2023-02-28T09:59:59;2.60;90.00
14016;DHT22;7083;48.854;9.158;2023-02-28T10:05:47;2.90;87.80
14016;DHT22;7083;48.854;9.158;2023-02-28T10:08:21;2.90;88.40
14016;DHT22;7083;48.854;9.158;2023-02-28T10:10:53;3.00;87.90
14016;DHT22;7083;48.854;9.158;2023-02-28T10:13:26;3.10;86.90
14016;DHT22;7083;48.854;9.158;2023-02-28T10:16:02;3.20;87.00
14016;DHT22;7083;48.854;9.158;2023-02-28T10:18:38;3.30;86.30
14016;DHT22;7083;48.854;9.158;2023-02-28T10:21:13;3.30;85.60
14016;DHT22;7083;48.854;9.158;2023-02-28T10:23:45;3.30;85.60
14016;DHT22;7083;48.854;9.158;2023-02-28T10:26:14;3.50;85.20
14016;DHT22;7083;48.854;9.158;2023-02-28T10:28:42;3.60;85.10
14016;DHT22;7083;48.854;9.158;2023-02-28T10:31:13;3.70;85.30
14016;DHT22;7083;48.854;9.158;2023-02-28T10:33:40;3.50;84.80
14016;DHT22;7083;48.854;9.158;2023-02-28T10:36:12;3.60;85.30
14016;DHT22;7083;48.854;9.158;2023-02-28T10:38:40;3.60;84.60
14016;DHT22;7083;48.854;9.158;2023-02-28T10:41:09;3.70;85.60
14016;DHT22;7083;48.854;9.158;2023-02-28T10:43:37;3.90;84.20
14016;DHT22;7083;48.854;9.158;2023-02-28T10:46:12;4.20;84.50
14016;DHT22;7083;48.854;9.158;2023-02-28T10:48:42;4.20;82.60
14016;DHT22;7083;48.854;9.158;2023-02-28T10:51:11;4.00;81.70
14016;DHT22;7083;48.854;9.158;2023-02-28T10:53:45;4.10;81.70
14016;DHT22;7083;48.854;9.158;2023-02-28T10:56:17;4.30;82.00
14016;DHT22;7083;48.854;9.158;2023-02-28T10:58:49;4.50;81.90
14016;DHT22;7083;48.854;9.158;2023-02-28T11:01:19;4.70;81.30
14016;DHT22;7083;48.854;9.158;2023-02-28T11:03:46;4.70;81.60
14016;DHT22;7083;48.854;9.158;2023-02-28T11:06:16;4.80;81.90
14016;DHT22;7083;48.854;9.158;2023-02-28T11:08:46;5.00;81.60
14016;DHT22;7083;48.854;9.158;2023-02-28T11:11:13;5.10;81.00
14016;DHT22;7083;48.854;9.158;2023-02-28T11:13:44;5.30;81.00
14016;DHT22;7083;48.854;9.158;2023-02-28T11:16:13;5.30;80.10
14016;DHT22;7083;48.854;9.158;2023-02-28T11:18:42;5.30;79.00
14016;DHT22;7083;48.854;9.158;2023-02-28T11:21:16;5.30;79.20
14016;DHT22;7083;48.854;9.158;2023-02-28T11:23:44;5.30;79.10
14016;DHT22;7083;48.854;9.158;2023-02-28T11:26:11;5.20;79.20
14016;DHT22;7083;48.854;9.158;2023-02-28T11:28:39;5.10;80.00
14016;DHT22;7083;48.854;9.158;2023-02-28T11:31:17;4.80;79.10
14016;DHT22;7083;48.854;9.158;2023-02-28T11:33:48;4.80;80.40
14016;DHT22;7083;48.854;9.158;2023-02-28T11:36:19;4.70;80.80
14016;DHT22;7083;48.854;9.158;2023-02-28T11:38:46;4.60;80.70
14016;DHT22;7083;48.854;9.158;2023-02-28T11:41:37;4.60;81.50
14016;DHT22;7083;48.854;9.158;2023-02-28T11:44:36;4.60;80.60
14016;DHT22;7083;48.854;9.158;2023-02-28T11:47:11;4.50;80.00
14016;DHT22;7083;48.854;9.158;2023-02-28T11:49:46;4.60;80.80
14016;DHT22;7083;48.854;9.158;2023-02-28T11:52:20;4.50;80.00
14016;DHT22;7083;48.854;9.158;2023-02-28T11:54:59;4.70;81.10
14016;DHT22;7083;48.854;9.158;2023-02-28T11:57:38;4.80;80.60
14016;DHT22;7083;48.854;9.158;2023-02-28T12:00:15;4.80;80.80
14016;DHT22;7083;48.854;9.158;2023-02-28T12:03:00;4.90;79.50
14016;DHT22;7083;48.854;9.158;2023-02-28T12:05:33;5.00;79.90
14016;DHT22;7083;48.854;9.158;2023-02-28T12:08:17;4.90;77.80
14016;DHT22;7083;48.854;9.158;2023-02-28T12:11:00;5.00;80.10
14016;DHT22;7083;48.854;9.158;2023-02-28T12:13:35;5.20;79.40
14016;DHT22;7083;48.854;9.158;2023-02-28T12:16:29;5.30;79.00
14016;DHT22;7083;48.854;9.158;2023-02-28T12:19:12;5.20;77.40
14016;DHT22;7083;48.854;9.158;2023-02-28T12:21:49;5.20;77.80
14016;DHT22;7083;48.854;9.158;2023-02-28T12:24:28;5.10;77.60
14016;DHT22;7083;48.854;9.158;2023-02-28T12:27:06;5.30;79.80
14016;DHT22;7083;48.854;9.158;2023-02-28T12:29:41;5.50;78.90
14016;DHT22;7083;48.854;9.158;2023-02-28T12:32:12;5.40;77.20
14016;DHT22;7083;48.854;9.158;2023-02-28T12:34:46;5.60;76.20
14016;DHT22;7083;48.854;9.158;2023-02-28T12:37:17;5.60;77.50
14016;DHT22;7083;48.854;9.158;2023-02-28T12:39:48;5.80;77.30
14016;DHT22;7083;48.854;9.158;2023-02-28T12:42:22;6.00;77.30
14016;DHT22;7083;48.854;9.158;2023-02-28T12:44:54;6.20;76.70
14016;DHT22;7083;48.854;9.158;2023-02-28T12:47:22;6.40;75.70
14016;DHT22;7083;48.854;9.158;2023-02-28T12:49:54;6.40;74.90
14016;DHT22;7083;48.854;9.158;2023-02-28T12:52:28;6.50;75.30
14016;DHT22;7083;48.854;9.158;2023-02-28T12:55:02;6.70;74.30
14016;DHT22;7083;48.854;9.158;2023-02-28T12:57:34;6.70;73.50
14016;DHT22;7083;48.854;9.158;2023-02-28T13:00:08;6.70;72.40
14016;DHT22;7083;48.854;9.158;2023-02-28T13:02:58;6.80;72.60
14016;DHT22;7083;48.854;9.158;2023-02-28T13:05:56;6.80;71.30
14016;DHT22;7083;48.854;9.158;2023-02-28T13:08:48;6.80;71.60
14016;DHT22;7083;48.854;9.158;2023-02-28T13:11:29;7.00;71.10
14016;DHT22;7083;48.854;9.158;2023-02-28T13:13:58;7.20;71.30
14016;DHT22;7083;48.854;9.158;2023-02-28T13:16:25;7.00;69.60
14016;DHT22;7083;48.854;9.158;2023-02-28T13:18:52;6.70;69.80
14016;DHT22;7083;48.854;9.158;2023-02-28T13:21:42;6.40;70.70
14016;DHT22;7083;48.854;9.158;2023-02-28T13:24:11;6.20;70.70
14016;DHT22;7083;48.854;9.158;2023-02-28T13:27:34;6.30;71.10
14016;DHT22;7083;48.854;9.158;2023-02-28T13:33:25;6.50;72.50
14016;DHT22;7083;48.854;9.158;2023-02-28T13:36:09;6.60;70.60
14016;DHT22;7083;48.854;9.158;2023-02-28T13:38:41;6.70;71.80
14016;DHT22;7083;48.854;9.158;2023-02-28T13:41:42;6.90;70.90
14016;DHT22;7083;48.854;9.158;2023-02-28T13:44:11;6.80;69.70
14016;DHT22;7083;48.854;9.158;2023-02-28T13:49:38;7.00;70.30
14016;DHT22;7083;48.854;9.158;2023-02-28T13:52:14;7.20;70.10
14016;DHT22;7083;48.854;9.158;2023-02-28T13:55:02;7.20;70.60
14016;DHT22;7083;48.854;9.158;2023-02-28T13:57:40;7.10;69.20
14016;DHT22;7083;48.854;9.158;2023-02-28T14:00:19;7.30;69.90
14016;DHT22;7083;48.854;9.158;2023-02-28T14:03:06;7.40;69.60
14016;DHT22;7083;48.854;9.158;2023-02-28T14:05:37;7.60;69.40
14016;DHT22;7083;48.854;9.158;2023-02-28T14:08:06;7.60;70.10
14016;DHT22;7083;48.854;9.158;2023-02-28T14:10:43;8.00;69.10
14016;DHT22;7083;48.854;9.158;2023-02-28T14:13:38;8.30;69.10
14016;DHT22;7083;48.854;9.158;2023-02-28T14:16:10;8.60;65.80
14016;DHT22;7083;48.854;9.158;2023-02-28T14:18:41;8.30;65.90
14016;DHT22;7083;48.854;9.158;2023-02-28T14:21:11;8.30;66.10
14016;DHT22;7083;48.854;9.158;2023-02-28T14:27:00;8.40;65.90
14016;DHT22;7083;48.854;9.158;2023-02-28T14:29:53;8.90;65.40
14016;DHT22;7083;48.854;9.158;2023-02-28T14:32:30;9.40;63.60
14016;DHT22;7083;48.854;9.158;2023-02-28T14:35:05;10.10;60.40
14016;DHT22;7083;48.854;9.158;2023-02-28T14:37:38;10.40;60.00
14016;DHT22;7083;48.854;9.158;2023-02-28T14:40:12;10.10;59.00
14016;DHT22;7083;48.854;9.158;2023-02-28T14:42:47;9.40;61.10
14016;DHT22;7083;48.854;9.158;2023-02-28T14:45:18;8.70;63.00
14016;DHT22;7083;48.854;9.158;2023-02-28T14:47:45;8.30;64.20
14016;DHT22;7083;48.854;9.158;2023-02-28T14:50:18;7.90;65.10
14016;DHT22;7083;48.854;9.158;2023-02-28T14:52:45;7.60;66.90
14016;DHT22;7083;48.854;9.158;2023-02-28T14:55:15;7.50;68.10
14016;DHT22;7083;48.854;9.158;2023-02-28T14:57:53;7.40;68.30
14016;DHT22;7083;48.854;9.158;2023-02-28T15:00:23;7.50;68.60
14016;DHT22;7083;48.854;9.158;2023-02-28T15:02:50;7.70;68.30
14016;DHT22;7083;48.854;9.158;2023-02-28T15:05:29;7.60;68.10
14016;DHT22;7083;48.854;9.158;2023-02-28T15:08:09;8.10;67.70
14016;DHT22;7083;48.854;9.158;2023-02-28T15:10:37;8.70;66.30
14016;DHT22;7083;48.854;9.158;2023-02-28T15:13:10;9.20;64.90
14016;DHT22;7083;48.854;9.158;2023-02-28T15:15:44;9.20;62.30
14016;DHT22;7083;48.854;9.158;2023-02-28T15:18:18;8.60;63.90
14016;DHT22;7083;48.854;9.158;2023-02-28T15:20:48;8.30;65.10
14016;DHT22;7083;48.854;9.158;2023-02-28T15:23:15;8.50;66.60
14016;DHT22;7083;48.854;9.158;2023-02-28T15:25:43;8.70;64.80
14016;DHT22;7083;48.854;9.158;2023-02-28T15:28:16;8.60;65.00
14016;DHT22;7083;48.854;9.158;2023-02-28T15:30:54;8.60;63.60
14016;DHT22;7083;48.854;9.158;2023-02-28T15:33:23;8.60;64.20
14016;DHT22;7083;48.854;9.158;2023-02-28T15:35:50;8.60;65.00
14016;DHT22;7083;48.854;9.158;2023-02-28T15:38:22;8.70;65.30
14016;DHT22;7083;48.854;9.158;2023-02-28T15:40:51;8.30;64.60
14016;DHT22;7083;48.854;9.158;2023-02-28T15:43:25;8.00;65.10
14016;DHT22;7083;48.854;9.158;2023-02-28T15:45:56;7.90;66.70
14016;DHT22;7083;48.854;9.158;2023-02-28T15:48:25;7.40;66.60
14016;DHT22;7083;48.854;9.158;2023-02-28T15:50:55;7.30;68.30
14016;DHT22;7083;48.854;9.158;2023-02-28T15:53:24;7.40;68.30
14016;DHT22;7083;48.854;9.158;2023-02-28T15:55:54;7.50;68.00
14016;DHT22;7083;48.854;9.158;2023-02-28T15:58:23;7.40;68.60
14016;DHT22;7083;48.854;9.158;2023-02-28T16:01:05;7.30;68.70
14016;DHT22;7083;48.854;9.158;2023-02-28T16:03:44;7.00;68.70
14016;DHT22;7083;48.854;9.158;2023-02-28T16:06:33;6.70;70.00
14016;DHT22;7083;48.854;9.158;2023-02-28T16:09:00;6.30;70.30
14016;DHT22;7083;48.854;9.158;2023-02-28T16:11:27;6.20;71.10
14016;DHT22;7083;48.854;9.158;2023-02-28T16:13:57;6.30;72.30
14016;DHT22;7083;48.854;9.158;2023-02-28T16:16:25;6.30;72.50
14016;DHT22;7083;48.854;9.158;2023-02-28T16:18:52;6.30;73.00
14016;DHT22;7083;48.854;9.158;2023-02-28T16:21:19;6.10;71.70
14016;DHT22;7083;48.854;9.158;2023-02-28T16:23:46;5.90;72.40
14016;DHT22;7083;48.854;9.158;2023-02-28T16:26:19;5.80;73.00
14016;DHT22;7083;48.854;9.158;2023-02-28T16:28:47;5.40;73.90
14016;DHT22;7083;48.854;9.158;2023-02-28T16:31:16;5.30;74.50
14016;DHT22;7083;48.854;9.158;2023-02-28T16:33:44;5.10;75.00
14016;DHT22;7083;48.854;9.158;2023-02-28T16:36:16;4.90;75.70
14016;DHT22;7083;48.854;9.158;2023-02-28T16:38:43;4.70;77.00